createdAt,value
2019-02-02T00:03:38.151Z,70.37
2019-02-02T00:06:07.641Z,80.70
2019-02-02T00:08:36.772Z,72.97
2019-02-02T00:11:25.408Z,69.40
2019-02-02T00:17:15.197Z,83.80
2019-02-02T00:19:56.343Z,84.57
2019-02-02T00:22:37.373Z,83.07
2019-02-02T00:25:06.767Z,83.30
2019-02-02T00:27:41.430Z,80.70
2019-02-02T00:30:47.218Z,80.13
2019-02-02T00:33:35.517Z,82.60
2019-02-02T00:36:16.721Z,79.03
2019-02-02T00:38:58.010Z,80.90
2019-02-02T00:41:39.061Z,77.57
2019-02-02T00:44:20.338Z,74.90
2019-02-02T00:47:01.700Z,70.03
2019-02-02T00:49:43.106Z,69.60
2019-02-02T00:52:24.120Z,67.87
2019-02-02T00:54:53.280Z,75.00
2019-02-02T00:57:52.945Z,75.07
2019-02-02T01:00:29.764Z,72.70
2019-02-02T01:03:10.236Z,74.33
2019-02-02T01:05:51.756Z,75.30
2019-02-02T01:08:33.022Z,72.30
2019-02-02T01:11:14.248Z,67.10
2019-02-02T01:13:56.192Z,71.70
2019-02-02T01:16:37.494Z,71.60
2019-02-02T01:19:06.789Z,67.13
2019-02-02T01:21:55.618Z,65.23
2019-02-02T01:24:36.743Z,65.43
2019-02-02T01:27:18.256Z,62.60
2019-02-02T01:29:59.811Z,59.60
2019-02-02T01:32:40.591Z,59.10
2019-02-02T01:35:21.631Z,57.83
2019-02-02T01:38:02.727Z,56.07
2019-02-02T01:40:43.962Z,54.30
2019-02-02T01:43:25.105Z,41.97
2019-02-02T01:46:06.522Z,44.70
2019-02-02T01:48:47.839Z,43.30
2019-02-02T01:51:28.496Z,58.43
2019-02-02T01:54:10.301Z,61.27
2019-02-02T01:56:51.307Z,65.80
2019-02-02T01:59:32.516Z,65.07
2019-02-02T02:02:13.386Z,66.60
2019-02-02T02:04:54.776Z,72.17
2019-02-02T02:07:36.806Z,68.00
2019-02-02T02:10:17.754Z,67.23
2019-02-02T02:12:58.897Z,69.43
2019-02-02T02:15:42.179Z,67.63
2019-02-02T02:18:22.664Z,67.23
2019-02-02T02:21:03.516Z,63.77
2019-02-02T02:23:46.876Z,65.90
2019-02-02T02:26:28.444Z,61.93
2019-02-02T02:29:10.556Z,64.13
2019-02-02T02:31:51.664Z,63.17
2019-02-02T02:34:33.097Z,64.07
2019-02-02T02:37:14.428Z,60.23
2019-02-02T02:39:55.720Z,63.80
2019-02-02T02:42:37.634Z,63.23
2019-02-02T02:45:07.336Z,64.33
2019-02-02T02:47:55.845Z,64.30
2019-02-02T02:50:39.195Z,60.47
2019-02-02T02:53:20.687Z,60.53
2019-02-02T02:56:02.427Z,63.77
2019-02-02T02:58:43.727Z,58.07
2019-02-02T03:01:24.718Z,64.03
2019-02-02T03:04:06.384Z,62.27
2019-02-02T03:06:45.703Z,58.60
2019-02-02T03:09:34.013Z,59.57
2019-02-02T03:12:14.698Z,60.60
2019-02-02T03:14:55.392Z,56.77
2019-02-02T03:17:37.522Z,56.63
2019-02-02T03:20:19.523Z,56.47
2019-02-02T03:22:59.102Z,48.60
2019-02-02T03:25:47.702Z,56.10
2019-02-02T03:28:30.441Z,54.73
2019-02-02T03:31:17.531Z,48.23
2019-02-02T03:33:58.791Z,45.63
2019-02-02T03:36:43.132Z,55.93
2019-02-02T03:39:22.768Z,52.50
2019-02-02T03:42:03.995Z,49.83
2019-02-02T03:44:44.842Z,53.50
2019-02-02T03:47:25.784Z,50.77
2019-02-02T03:50:06.647Z,51.23
2019-02-02T03:52:47.058Z,46.20
2019-02-02T03:55:28.899Z,40.17
2019-02-02T03:58:08.238Z,43.40
2019-02-02T04:00:51.101Z,36.77
2019-02-02T04:03:40.216Z,44.97
2019-02-02T04:06:23.155Z,37.20
2019-02-02T04:09:05.279Z,55.73
2019-02-02T04:11:47.101Z,56.80
2019-02-02T04:14:28.244Z,60.03
2019-02-02T04:17:10.336Z,62.47
2019-02-02T04:19:51.385Z,62.40
2019-02-02T04:22:35.590Z,61.33
2019-02-02T04:25:15.808Z,62.27
2019-02-02T04:27:57.627Z,54.90
2019-02-02T04:30:38.403Z,54.20
2019-02-02T04:33:19.236Z,70.97
2019-02-02T04:36:01.576Z,67.67
2019-02-02T04:38:42.824Z,63.43
2019-02-02T04:41:25.562Z,60.80
2019-02-02T04:44:06.342Z,56.30
2019-02-02T04:46:47.180Z,62.53
2019-02-02T04:49:27.977Z,67.73
2019-02-02T04:52:08.553Z,69.77
2019-02-02T04:54:38.119Z,69.10
2019-02-02T04:57:26.391Z,62.60
2019-02-02T05:00:08.027Z,58.60
2019-02-02T05:05:45.238Z,72.83
2019-02-02T05:08:27.033Z,64.80
2019-02-02T05:11:08.682Z,61.80
2019-02-02T05:13:49.613Z,66.33
2019-02-02T05:16:30.427Z,65.83
2019-02-02T05:22:21.479Z,67.50
2019-02-02T05:25:04.614Z,62.43
2019-02-02T05:27:46.703Z,65.67
2019-02-02T05:30:28.014Z,65.37
2019-02-02T05:33:08.674Z,65.93
2019-02-02T05:35:49.765Z,68.23
2019-02-02T05:38:30.891Z,67.93
2019-02-02T05:41:11.551Z,69.17
2019-02-02T05:43:52.758Z,70.43
2019-02-02T05:46:33.918Z,66.43
2019-02-02T05:52:27.300Z,65.70
2019-02-02T05:55:07.724Z,64.50
2019-02-02T05:57:36.850Z,61.90
2019-02-02T06:00:45.374Z,52.13
2019-02-02T06:03:26.284Z,66.67
2019-02-02T06:06:07.788Z,53.43
2019-02-02T06:14:29.682Z,54.13
2019-02-02T06:17:10.419Z,53.63
2019-02-02T06:19:51.667Z,51.27
2019-02-02T06:25:11.535Z,48.57
2019-02-02T06:28:00.136Z,25.53
2019-02-02T06:30:40.712Z,35.60
2019-02-02T06:33:21.882Z,35.87
2019-02-02T06:36:03.778Z,47.53
2019-02-02T06:47:30.005Z,43.67
2019-02-02T06:50:18.282Z,50.93
2019-02-02T06:52:59.680Z,51.70
2019-02-02T06:55:40.275Z,52.90
2019-02-02T06:58:21.448Z,51.67
2019-02-02T07:01:02.224Z,51.87
2019-02-02T07:03:43.805Z,52.87
2019-02-02T07:06:24.470Z,53.83
2019-02-02T07:09:05.231Z,54.57
2019-02-02T07:11:46.017Z,55.03
2019-02-02T07:14:25.364Z,51.17
2019-02-02T07:17:13.691Z,54.40
2019-02-02T07:19:54.523Z,53.20
2019-02-02T07:22:35.189Z,54.70
2019-02-02T07:25:15.893Z,53.90
2019-02-02T07:27:57.218Z,56.07
2019-02-02T07:30:38.273Z,54.80
2019-02-02T07:33:19.510Z,49.23
2019-02-02T07:36:00.862Z,50.47
2019-02-02T07:38:41.527Z,43.63
2019-02-02T07:41:30.371Z,43.37
2019-02-02T07:44:20.534Z,44.93
2019-02-02T07:47:01.477Z,41.33
2019-02-02T07:49:42.637Z,40.70
2019-02-02T07:52:24.036Z,56.60
2019-02-02T07:55:05.365Z,58.53
2019-02-02T07:57:45.989Z,56.77
2019-02-02T08:00:27.176Z,54.33
2019-02-02T08:03:08.381Z,57.30
2019-02-02T08:05:51.004Z,53.03
2019-02-02T08:08:40.073Z,52.03
2019-02-02T08:14:28.298Z,53.10
2019-02-02T08:17:09.752Z,57.43
2019-02-02T08:19:50.191Z,57.13
2019-02-02T08:22:32.000Z,55.50
2019-02-02T08:25:13.539Z,48.60
2019-02-02T08:27:54.195Z,52.10
2019-02-02T08:30:35.743Z,55.00
2019-02-02T08:33:17.524Z,53.37
2019-02-02T08:35:58.816Z,56.40
2019-02-02T08:38:39.411Z,54.23
2019-02-02T08:41:20.891Z,54.17
2019-02-02T08:44:01.704Z,57.13
2019-02-02T08:46:42.519Z,56.13
2019-02-02T08:49:23.760Z,55.83
2019-02-02T08:52:05.204Z,54.37
2019-02-02T08:54:46.683Z,50.53
2019-02-02T08:57:27.429Z,55.03
2019-02-02T09:00:08.069Z,53.53
2019-02-02T09:05:45.225Z,55.63
2019-02-02T09:08:26.605Z,48.70
2019-02-02T09:11:07.733Z,53.10
2019-02-02T09:19:41.215Z,49.43
2019-02-02T09:22:22.088Z,48.83
2019-02-02T09:25:02.637Z,49.73
2019-02-02T09:27:43.414Z,49.07
2019-02-02T09:30:24.530Z,47.77
2019-02-02T09:33:05.632Z,50.27
2019-02-02T09:35:46.196Z,47.73
2019-02-02T09:38:26.852Z,47.67
2019-02-02T09:41:07.412Z,48.33
2019-02-02T09:43:49.117Z,47.57
2019-02-02T09:46:30.190Z,43.53
2019-02-02T09:49:11.536Z,44.30
2019-02-02T09:51:52.563Z,39.80
2019-02-02T09:54:33.180Z,39.83
2019-02-02T09:57:13.700Z,41.27
2019-02-02T09:59:54.401Z,56.23
2019-02-02T10:02:35.373Z,59.77
2019-02-02T10:05:19.045Z,56.63
2019-02-02T10:07:59.567Z,56.67
2019-02-02T10:10:41.759Z,55.43
2019-02-02T10:13:22.357Z,56.90
2019-02-02T10:16:03.032Z,55.27
2019-02-02T10:18:44.389Z,51.20
2019-02-02T10:21:26.042Z,53.27
2019-02-02T10:24:07.727Z,56.63
2019-02-02T10:26:56.428Z,45.57
2019-02-02T10:32:45.128Z,43.33
2019-02-02T10:35:25.765Z,44.00
2019-02-02T10:38:07.174Z,41.63
2019-02-02T10:40:36.770Z,38.57
2019-02-02T10:43:25.356Z,43.93
2019-02-02T10:46:26.485Z,35.10
2019-02-02T10:48:57.120Z,34.23
2019-02-02T10:51:38.421Z,35.47
2019-02-02T10:54:19.850Z,32.80
2019-02-02T10:57:00.626Z,44.13
2019-02-02T10:59:41.986Z,43.70
2019-02-02T11:02:22.738Z,44.43
2019-02-02T11:05:04.185Z,47.47
2019-02-02T11:07:45.642Z,41.33
2019-02-02T11:10:26.478Z,40.57
2019-02-02T11:13:16.813Z,39.93
2019-02-02T11:16:08.433Z,41.53
2019-02-02T11:18:37.719Z,40.87
2019-02-02T11:21:06.829Z,42.10
2019-02-02T11:23:55.251Z,46.13
2019-02-02T11:29:43.324Z,46.50
2019-02-02T11:32:24.343Z,32.43
2019-02-02T11:35:05.553Z,34.03
2019-02-02T11:37:46.103Z,34.50
2019-02-02T11:40:27.480Z,31.90
2019-02-02T11:43:08.527Z,19.87
2019-02-02T11:45:49.696Z,43.33
2019-02-02T11:48:30.324Z,47.37
2019-02-02T11:51:11.422Z,47.97
2019-02-02T11:53:52.443Z,48.33
2019-02-02T11:56:38.862Z,44.77
2019-02-02T11:58:55.965Z,34.33
2019-02-02T12:01:36.728Z,31.40
2019-02-02T12:04:17.596Z,33.60
2019-02-02T12:06:58.500Z,28.20
2019-02-02T12:09:39.716Z,38.37
2019-02-02T12:12:21.349Z,39.70
2019-02-02T12:15:01.966Z,39.60
2019-02-02T12:17:43.201Z,40.57
2019-02-02T12:20:24.720Z,40.63
2019-02-02T12:23:05.702Z,43.97
2019-02-02T12:25:47.194Z,43.90
2019-02-02T12:28:28.654Z,45.40
2019-02-02T12:31:09.801Z,38.13
2019-02-02T12:33:51.022Z,42.93
2019-02-02T12:36:32.143Z,42.50
2019-02-02T12:39:12.755Z,44.80
2019-02-02T12:41:53.255Z,40.27
2019-02-02T12:44:34.493Z,43.50
2019-02-02T12:47:15.906Z,40.73
2019-02-02T12:49:57.197Z,38.80
2019-02-02T12:52:38.596Z,36.83
2019-02-02T12:55:20.057Z,28.57
2019-02-02T12:58:08.549Z,27.20
2019-02-02T13:00:50.030Z,26.40
2019-02-02T13:03:30.960Z,23.37
2019-02-02T13:06:12.217Z,26.37
2019-02-02T13:08:52.860Z,26.63
2019-02-02T13:11:34.093Z,30.43
2019-02-02T13:14:15.116Z,31.73
2019-02-02T13:17:03.404Z,30.57
2019-02-02T13:19:45.891Z,29.03
2019-02-02T13:22:26.597Z,27.80
2019-02-02T13:27:30.420Z,25.40
2019-02-02T13:30:20.494Z,28.57
2019-02-02T13:33:01.959Z,26.57
2019-02-02T13:35:42.975Z,26.57
2019-02-02T13:38:23.593Z,27.83
2019-02-02T13:41:04.123Z,31.43
2019-02-02T13:43:44.853Z,32.57
2019-02-02T13:46:25.998Z,30.70
2019-02-02T13:49:07.668Z,28.70
2019-02-02T13:51:36.893Z,28.90
2019-02-02T13:54:37.316Z,28.40
2019-02-02T13:57:15.452Z,27.10
2019-02-02T13:59:56.325Z,26.53
2019-02-02T14:02:37.865Z,19.63
2019-02-02T14:05:29.079Z,23.03
2019-02-02T14:08:17.511Z,19.90
2019-02-02T14:10:58.724Z,22.53
2019-02-02T14:13:39.747Z,14.83
2019-02-02T14:16:20.831Z,17.77
2019-02-02T14:19:01.502Z,11.17
2019-02-02T14:21:42.719Z,18.30
2019-02-02T14:24:24.028Z,18.93
2019-02-02T14:27:05.162Z,20.73
2019-02-02T14:29:45.792Z,19.67
2019-02-02T14:32:26.932Z,17.53
2019-02-02T14:35:08.381Z,18.47
2019-02-02T14:37:49.889Z,19.77
2019-02-02T14:40:30.571Z,21.00
2019-02-02T14:43:12.087Z,22.20
2019-02-02T14:45:53.292Z,23.07
2019-02-02T14:48:34.294Z,21.40
2019-02-02T14:51:15.633Z,21.57
2019-02-02T14:53:45.016Z,20.90
2019-02-02T14:56:33.586Z,15.73
2019-02-02T14:59:14.485Z,16.80
2019-02-02T15:01:55.416Z,20.77
2019-02-02T15:04:36.989Z,21.50
2019-02-02T15:07:11.115Z,21.30
2019-02-02T15:09:59.624Z,22.80
2019-02-02T15:12:48.039Z,23.17
2019-02-02T15:15:36.963Z,22.27
2019-02-02T15:21:25.582Z,24.77
2019-02-02T15:24:09.177Z,21.40
2019-02-02T15:26:49.592Z,21.97
2019-02-02T15:29:30.332Z,22.90
2019-02-02T15:32:10.982Z,22.13
2019-02-02T15:34:51.646Z,22.53
2019-02-02T15:37:32.334Z,23.17
2019-02-02T15:40:13.240Z,24.27
2019-02-02T15:42:53.962Z,22.47
2019-02-02T15:45:35.372Z,21.20
2019-02-02T15:48:23.858Z,23.03
2019-02-02T15:51:04.868Z,27.23
2019-02-02T15:56:44.408Z,28.27
2019-02-02T15:59:25.817Z,26.70
2019-02-02T16:02:07.172Z,27.97
2019-02-02T16:04:47.809Z,28.20
2019-02-02T16:07:28.493Z,27.50
2019-02-02T16:10:09.847Z,26.97
2019-02-02T16:12:51.262Z,28.47
2019-02-02T16:15:34.388Z,28.43
2019-02-02T16:18:14.673Z,28.10
2019-02-02T16:20:55.925Z,22.43
2019-02-02T16:23:37.127Z,20.73
2019-02-02T16:26:18.574Z,21.20
2019-02-02T16:28:59.287Z,29.40
2019-02-02T16:31:40.575Z,29.60
2019-02-02T16:34:21.755Z,31.80
2019-02-02T16:37:02.981Z,31.27
2019-02-02T16:39:44.230Z,32.07
2019-02-02T16:42:25.227Z,32.50
2019-02-02T16:45:06.443Z,33.17
2019-02-02T16:47:48.142Z,32.47
2019-02-02T16:50:29.596Z,34.00
2019-02-02T16:53:10.525Z,32.90
2019-02-02T16:55:51.632Z,33.73
2019-02-02T16:58:32.898Z,33.90
2019-02-02T17:01:14.029Z,34.33
2019-02-02T17:03:56.500Z,34.67
2019-02-02T17:06:38.778Z,34.23
2019-02-02T17:09:20.078Z,31.27
2019-02-02T17:12:01.272Z,31.63
2019-02-02T17:17:43.165Z,24.97
2019-02-02T17:20:24.305Z,25.43
2019-02-02T17:23:05.255Z,30.17
2019-02-02T17:25:47.056Z,36.33
2019-02-02T17:31:11.539Z,36.87
2019-02-02T17:34:01.035Z,35.43
2019-02-02T17:36:46.605Z,35.77
2019-02-02T17:39:27.219Z,36.00
2019-02-02T17:42:07.879Z,27.97
2019-02-02T17:44:37.144Z,28.33
2019-02-02T17:50:26.192Z,28.47
2019-02-02T17:56:21.422Z,40.93
2019-02-02T17:59:02.607Z,40.57
2019-02-02T18:01:43.944Z,40.20
2019-02-02T18:04:26.462Z,38.20
2019-02-02T18:07:07.688Z,41.07
2019-02-02T18:09:36.872Z,40.83
2019-02-02T18:12:25.391Z,37.17
2019-02-02T18:15:13.962Z,41.00
2019-02-02T18:17:55.084Z,40.50
2019-02-02T18:20:36.225Z,42.27
2019-02-02T18:23:18.392Z,40.53
2019-02-02T18:25:59.537Z,28.60
2019-02-02T18:28:29.181Z,31.67
2019-02-02T18:31:17.661Z,29.50
2019-02-02T18:36:42.614Z,38.23
2019-02-02T18:39:12.933Z,32.23
2019-02-02T18:42:13.287Z,30.47
2019-02-02T18:44:54.510Z,28.17
2019-02-02T18:47:35.856Z,27.77
2019-02-02T18:50:17.083Z,28.50
2019-02-02T18:52:57.688Z,29.03
2019-02-02T18:55:38.934Z,30.37
2019-02-02T18:58:20.299Z,30.30
2019-02-02T19:01:00.985Z,30.07
2019-02-02T19:03:42.312Z,27.43
2019-02-02T19:06:23.484Z,28.40
2019-02-02T19:09:04.944Z,30.20
2019-02-02T19:11:45.876Z,30.47
2019-02-02T19:14:26.971Z,29.07
2019-02-02T19:17:08.032Z,29.27
2019-02-02T19:19:37.553Z,26.70
2019-02-02T19:25:14.352Z,29.33
2019-02-02T19:31:08.245Z,23.27
2019-02-02T19:36:46.440Z,13.00
2019-02-02T19:39:27.913Z,14.37
2019-02-02T19:42:09.377Z,10.90
2019-02-02T19:44:57.863Z,11.50
2019-02-02T19:47:38.732Z,13.43
2019-02-02T19:50:19.481Z,14.13
2019-02-02T19:53:00.854Z,20.60
2019-02-02T19:55:41.757Z,21.93
2019-02-02T19:58:22.465Z,20.77
2019-02-02T20:01:03.935Z,22.97
2019-02-02T20:03:44.991Z,23.70
2019-02-02T20:06:25.777Z,23.93
2019-02-02T20:09:07.052Z,24.73
2019-02-02T20:11:48.377Z,25.03
2019-02-02T20:14:28.978Z,26.00
2019-02-02T20:17:09.745Z,26.77
2019-02-02T20:19:50.719Z,25.57
2019-02-02T20:22:31.911Z,27.63
2019-02-02T20:25:13.444Z,24.77
2019-02-02T20:27:54.762Z,22.57
2019-02-02T20:30:35.514Z,20.27
2019-02-02T20:33:05.089Z,20.70
2019-02-02T20:35:53.480Z,22.97
2019-02-02T20:38:34.678Z,25.33
2019-02-02T20:41:15.425Z,26.10
2019-02-02T20:43:56.815Z,27.37
2019-02-02T20:46:37.391Z,28.43
2019-02-02T20:49:17.972Z,28.03
2019-02-02T20:51:59.540Z,26.30
2019-02-02T20:54:40.696Z,27.90
2019-02-02T20:57:22.227Z,28.27
2019-02-02T21:00:02.967Z,26.27
2019-02-02T21:02:43.716Z,26.73
2019-02-02T21:05:24.487Z,28.97
2019-02-02T21:08:05.694Z,28.80
2019-02-02T21:10:46.437Z,27.70
2019-02-02T21:13:27.607Z,32.77
2019-02-02T21:16:08.600Z,36.20
2019-02-02T21:18:49.661Z,36.27
2019-02-02T21:21:30.887Z,38.80
2019-02-02T21:24:12.182Z,40.33
2019-02-02T21:26:53.259Z,41.27
2019-02-02T21:29:33.992Z,40.97
2019-02-02T21:32:15.148Z,42.53
2019-02-02T21:34:56.378Z,43.03
2019-02-02T21:37:37.644Z,41.47
2019-02-02T21:40:18.646Z,42.10
2019-02-02T21:42:59.910Z,44.13
2019-02-02T21:45:41.012Z,44.13
2019-02-02T21:48:22.354Z,44.83
2019-02-02T21:51:03.333Z,44.33
2019-02-02T21:53:44.623Z,43.83
2019-02-02T21:56:25.667Z,43.33
2019-02-02T21:59:07.025Z,43.20
2019-02-02T22:01:48.148Z,42.43
2019-02-02T22:04:29.327Z,44.40
2019-02-02T22:07:10.592Z,43.47
2019-02-02T22:09:51.978Z,43.83
2019-02-02T22:12:33.399Z,43.47
2019-02-02T22:15:17.245Z,43.63
2019-02-02T22:17:57.552Z,43.43
2019-02-02T22:20:38.601Z,43.90
2019-02-02T22:23:20.010Z,43.13
2019-02-02T22:26:04.141Z,42.90
2019-02-02T22:28:45.090Z,42.07
2019-02-02T22:31:25.967Z,38.33
2019-02-02T22:33:55.442Z,37.47
2019-02-02T22:36:27.444Z,35.10
2019-02-02T22:42:15.080Z,49.53
2019-02-02T22:44:56.271Z,47.53
2019-02-02T22:50:45.804Z,44.43
2019-02-02T22:53:26.824Z,44.60
2019-02-02T22:56:08.222Z,44.97
2019-02-02T22:58:37.428Z,43.67
2019-02-02T23:01:44.889Z,43.43
2019-02-02T23:04:47.560Z,48.70
2019-02-02T23:07:28.387Z,47.83
2019-02-02T23:10:09.640Z,45.83
2019-02-02T23:12:50.764Z,45.53
2019-02-02T23:15:31.882Z,45.23
2019-02-02T23:18:13.221Z,44.17
2019-02-02T23:20:54.375Z,41.97
2019-02-02T23:23:23.916Z,41.97
2019-02-02T23:29:07.269Z,39.33
2019-02-02T23:31:55.680Z,36.20
2019-02-02T23:34:44.053Z,33.10
2019-02-02T23:37:25.475Z,31.13
2019-02-02T23:40:06.909Z,30.43
2019-02-02T23:42:48.015Z,29.07
2019-02-02T23:45:29.237Z,31.20
2019-02-02T23:48:10.638Z,28.10
2019-02-02T23:50:51.921Z,26.83
2019-02-02T23:53:33.035Z,26.50
2019-02-02T23:56:14.081Z,21.33
2019-02-02T23:58:55.886Z,17.07
